sensor_id;sensor_type;location;lat;lon;timestamp;pressure;altitude;pressure_sealevel;temperature;humidity
65280;BME280;51878;55.748;48.742;2022-11-20T00:00:53;99581.75;;;-12.35;100.00
65280;BME280;51878;55.748;48.742;2022-11-20T00:03:20;99647.38;;;-11.81;100.00
65280;BME280;51878;55.748;48.742;2022-11-20T00:05:47;99697.22;;;-11.56;100.00
65280;BME280;51878;55.748;48.742;2022-11-20T00:08:14;99722.97;;;-11.41;100.00
65280;BME280;51878;55.748;48.742;2022-11-20T00:10:41;99740.88;;;-11.27;100.00
65280;BME280;51878;55.748;48.742;2022-11-20T00:13:08;99713.88;;;-11.59;100.00
65280;BME280;51878;55.748;48.742;2022-11-20T00:15:35;99603.59;;;-12.04;100.00
65280;BME280;51878;55.748;48.742;2022-11-20T00:18:02;99730.25;;;-11.21;100.00
65280;BME280;51878;55.748;48.742;2022-11-20T00:20:29;99733.97;;;-11.30;100.00
65280;BME280;51878;55.748;48.742;2022-11-20T00:22:56;99734.63;;;-11.21;100.00
65280;BME280;51878;55.748;48.742;2022-11-20T00:25:24;99660.47;;;-11.81;100.00
65280;BME280;51878;55.748;48.742;2022-11-20T00:27:51;99716.75;;;-11.37;100.00
65280;BME280;51878;55.748;48.742;2022-11-20T00:30:18;99732.97;;;-11.24;100.00
65280;BME280;51878;55.748;48.742;2022-11-20T00:32:45;99662.56;;;-11.63;100.00
65280;BME280;51878;55.748;48.742;2022-11-20T00:35:12;99663.41;;;-11.62;100.00
65280;BME280;51878;55.748;48.742;2022-11-20T00:37:39;99725.22;;;-11.29;100.00
65280;BME280;51878;55.748;48.742;2022-11-20T00:40:07;99742.13;;;-11.09;100.00
65280;BME280;51878;55.748;48.742;2022-11-20T00:42:34;99657.16;;;-11.57;100.00
65280;BME280;51878;55.748;48.742;2022-11-20T00:45:01;99719.56;;;-11.13;100.00
65280;BME280;51878;55.748;48.742;2022-11-20T00:47:30;99688.47;;;-11.55;100.00
65280;BME280;51878;55.748;48.742;2022-11-20T00:49:57;99720.94;;;-11.31;100.00
65280;BME280;51878;55.748;48.742;2022-11-20T00:52:24;99635.47;;;-11.90;100.00
65280;BME280;51878;55.748;48.742;2022-11-20T00:54:51;99711.69;;;-11.43;100.00
65280;BME280;51878;55.748;48.742;2022-11-20T00:57:18;99684.28;;;-11.61;100.00
65280;BME280;51878;55.748;48.742;2022-11-20T00:59:45;99699.41;;;-11.39;100.00
65280;BME280;51878;55.748;48.742;2022-11-20T01:02:12;99695.03;;;-11.40;100.00
65280;BME280;51878;55.748;48.742;2022-11-20T01:04:39;99739.19;;;-10.98;100.00
65280;BME280;51878;55.748;48.742;2022-11-20T01:07:06;99740.28;;;-10.76;100.00
65280;BME280;51878;55.748;48.742;2022-11-20T01:09:33;99719.72;;;-10.88;100.00
65280;BME280;51878;55.748;48.742;2022-11-20T01:12:00;99684.75;;;-11.15;100.00
65280;BME280;51878;55.748;48.742;2022-11-20T01:14:27;99709.81;;;-10.78;100.00
65280;BME280;51878;55.748;48.742;2022-11-20T01:16:54;99705.78;;;-10.89;100.00
65280;BME280;51878;55.748;48.742;2022-11-20T01:19:23;99716.03;;;-11.11;100.00
65280;BME280;51878;55.748;48.742;2022-11-20T01:21:52;99706.03;;;-10.98;100.00
65280;BME280;51878;55.748;48.742;2022-11-20T01:24:21;99650.22;;;-10.98;100.00
65280;BME280;51878;55.748;48.742;2022-11-20T01:26:50;99711.16;;;-10.65;100.00
65280;BME280;51878;55.748;48.742;2022-11-20T01:29:22;99649.69;;;-10.82;100.00
65280;BME280;51878;55.748;48.742;2022-11-20T01:31:51;99702.25;;;-10.88;100.00
65280;BME280;51878;55.748;48.742;2022-11-20T01:34:20;99702.63;;;-10.72;100.00
65280;BME280;51878;55.748;48.742;2022-11-20T01:36:49;99637.72;;;-10.89;100.00
65280;BME280;51878;55.748;48.742;2022-11-20T01:39:19;99697.19;;;-10.37;100.00
65280;BME280;51878;55.748;48.742;2022-11-20T01:41:48;99621.91;;;-10.86;100.00
65280;BME280;51878;55.748;48.742;2022-11-20T01:44:50;99705.03;;;-10.36;100.00
65280;BME280;51878;55.748;48.742;2022-11-20T01:47:24;99670.88;;;-10.61;100.00
65280;BME280;51878;55.748;48.742;2022-11-20T01:49:56;99689.41;;;-10.41;100.00
65280;BME280;51878;55.748;48.742;2022-11-20T01:52:34;99689.06;;;-10.30;100.00
65280;BME280;51878;55.748;48.742;2022-11-20T01:55:14;99656.53;;;-10.49;100.00
65280;BME280;51878;55.748;48.742;2022-11-20T01:57:44;99551.56;;;-11.25;100.00
65280;BME280;51878;55.748;48.742;2022-11-20T02:00:16;99676.75;;;-10.28;100.00
65280;BME280;51878;55.748;48.742;2022-11-20T02:02:57;99576.28;;;-10.78;100.00
65280;BME280;51878;55.748;48.742;2022-11-20T02:08:13;99670.25;;;-10.16;100.00
65280;BME280;51878;55.748;48.742;2022-11-20T02:10:40;99675.13;;;-10.05;99.89
65280;BME280;51878;55.748;48.742;2022-11-20T02:13:08;99613.81;;;-10.51;100.00
65280;BME280;51878;55.748;48.742;2022-11-20T02:15:53;99661.97;;;-10.29;100.00
65280;BME280;51878;55.748;48.742;2022-11-20T02:18:21;99643.22;;;-10.43;100.00
65280;BME280;51878;55.748;48.742;2022-11-20T02:20:57;99659.22;;;-10.26;100.00
65280;BME280;51878;55.748;48.742;2022-11-20T02:23:39;99608.13;;;-10.64;100.00
65280;BME280;51878;55.748;48.742;2022-11-20T02:26:12;99606.66;;;-10.46;100.00
65280;BME280;51878;55.748;48.742;2022-11-20T02:28:40;99589.09;;;-10.43;99.73
65280;BME280;51878;55.748;48.742;2022-11-20T02:31:08;99646.75;;;-10.19;100.00
65280;BME280;51878;55.748;48.742;2022-11-20T02:33:35;99499.00;;;-11.44;100.00
65280;BME280;51878;55.748;48.742;2022-11-20T02:36:02;99627.97;;;-10.57;100.00
65280;BME280;51878;55.748;48.742;2022-11-20T02:38:29;99578.47;;;-10.65;100.00
65280;BME280;51878;55.748;48.742;2022-11-20T02:40:56;99640.50;;;-10.15;100.00
65280;BME280;51878;55.748;48.742;2022-11-20T02:43:23;99639.78;;;-9.93;100.00
65280;BME280;51878;55.748;48.742;2022-11-20T02:45:50;99607.13;;;-10.33;99.95
65280;BME280;51878;55.748;48.742;2022-11-20T02:48:18;99646.88;;;-9.97;99.76
65280;BME280;51878;55.748;48.742;2022-11-20T02:50:44;99619.81;;;-10.23;100.00
65280;BME280;51878;55.748;48.742;2022-11-20T02:53:12;99640.81;;;-10.24;100.00
65280;BME280;51878;55.748;48.742;2022-11-20T02:55:39;99643.41;;;-9.98;99.80
65280;BME280;51878;55.748;48.742;2022-11-20T02:58:06;99599.91;;;-10.28;99.56
65280;BME280;51878;55.748;48.742;2022-11-20T03:00:33;99637.19;;;-10.20;99.90
65280;BME280;51878;55.748;48.742;2022-11-20T03:03:00;99564.69;;;-10.45;99.60
65280;BME280;51878;55.748;48.742;2022-11-20T03:05:27;99615.41;;;-10.47;99.98
65280;BME280;51878;55.748;48.742;2022-11-20T03:07:54;99632.00;;;-10.22;100.00
65280;BME280;51878;55.748;48.742;2022-11-20T03:10:21;99638.59;;;-10.10;100.00
65280;BME280;51878;55.748;48.742;2022-11-20T03:12:53;99622.13;;;-10.13;100.00
65280;BME280;51878;55.748;48.742;2022-11-20T03:15:22;99596.47;;;-10.29;100.00
65280;BME280;51878;55.748;48.742;2022-11-20T03:17:53;99543.47;;;-10.62;100.00
65280;BME280;51878;55.748;48.742;2022-11-20T03:20:21;99609.91;;;-10.14;100.00
65280;BME280;51878;55.748;48.742;2022-11-20T03:22:48;99601.78;;;-10.07;100.00
65280;BME280;51878;55.748;48.742;2022-11-20T03:25:16;99486.91;;;-10.68;99.84
65280;BME280;51878;55.748;48.742;2022-11-20T03:27:43;99544.00;;;-10.52;99.64
65280;BME280;51878;55.748;48.742;2022-11-20T03:30:15;99615.28;;;-10.18;99.56
65280;BME280;51878;55.748;48.742;2022-11-20T03:32:43;99623.41;;;-10.00;99.63
65280;BME280;51878;55.748;48.742;2022-11-20T03:35:10;99623.66;;;-10.08;99.99
65280;BME280;51878;55.748;48.742;2022-11-20T03:37:37;99616.94;;;-10.15;99.60
65280;BME280;51878;55.748;48.742;2022-11-20T03:40:05;99638.75;;;-10.14;99.44
65280;BME280;51878;55.748;48.742;2022-11-20T03:42:33;99637.53;;;-10.04;99.70
65280;BME280;51878;55.748;48.742;2022-11-20T03:45:16;99627.69;;;-9.98;99.23
65280;BME280;51878;55.748;48.742;2022-11-20T03:47:45;99576.13;;;-10.22;98.53
65280;BME280;51878;55.748;48.742;2022-11-20T03:50:13;99645.66;;;-9.87;98.49
65280;BME280;51878;55.748;48.742;2022-11-20T03:52:41;99631.03;;;-9.69;100.00
65280;BME280;51878;55.748;48.742;2022-11-20T03:55:09;99612.56;;;-9.89;99.11
65280;BME280;51878;55.748;48.742;2022-11-20T03:57:36;99612.38;;;-9.85;98.76
65280;BME280;51878;55.748;48.742;2022-11-20T04:00:04;99620.88;;;-9.78;98.45
65280;BME280;51878;55.748;48.742;2022-11-20T04:02:34;99541.88;;;-10.18;98.22
65280;BME280;51878;55.748;48.742;2022-11-20T04:05:02;99619.38;;;-9.60;97.98
65280;BME280;51878;55.748;48.742;2022-11-20T04:07:29;99547.38;;;-10.25;97.64
65280;BME280;51878;55.748;48.742;2022-11-20T04:09:56;99625.72;;;-9.91;97.34
65280;BME280;51878;55.748;48.742;2022-11-20T04:12:23;99644.25;;;-10.22;97.25
65280;BME280;51878;55.748;48.742;2022-11-20T04:14:50;99667.66;;;-10.16;98.99
65280;BME280;51878;55.748;48.742;2022-11-20T04:17:17;99622.53;;;-10.26;100.00
65280;BME280;51878;55.748;48.742;2022-11-20T04:19:44;99605.47;;;-10.12;99.52
65280;BME280;51878;55.748;48.742;2022-11-20T04:22:11;99675.78;;;-9.73;98.48
65280;BME280;51878;55.748;48.742;2022-11-20T04:24:39;99664.47;;;-9.74;97.43
65280;BME280;51878;55.748;48.742;2022-11-20T04:27:06;99673.59;;;-9.61;97.91
65280;BME280;51878;55.748;48.742;2022-11-20T04:29:33;99619.53;;;-10.15;97.62
65280;BME280;51878;55.748;48.742;2022-11-20T04:32:02;99673.13;;;-9.72;98.34
65280;BME280;51878;55.748;48.742;2022-11-20T04:34:29;99566.97;;;-10.10;98.38
65280;BME280;51878;55.748;48.742;2022-11-20T04:36:56;99607.72;;;-10.02;97.21
65280;BME280;51878;55.748;48.742;2022-11-20T04:39:23;99612.53;;;-10.14;97.08
65280;BME280;51878;55.748;48.742;2022-11-20T04:41:50;99641.88;;;-9.78;96.80
65280;BME280;51878;55.748;48.742;2022-11-20T04:44:37;99686.97;;;-9.43;98.14
65280;BME280;51878;55.748;48.742;2022-11-20T04:47:04;99646.09;;;-9.50;96.73
65280;BME280;51878;55.748;48.742;2022-11-20T04:49:33;99640.06;;;-9.29;96.78
65280;BME280;51878;55.748;48.742;2022-11-20T04:52:00;99606.03;;;-9.79;97.28
65280;BME280;51878;55.748;48.742;2022-11-20T04:54:27;99654.69;;;-9.45;97.24
65280;BME280;51878;55.748;48.742;2022-11-20T04:56:54;99620.56;;;-9.45;97.46
65280;BME280;51878;55.748;48.742;2022-11-20T04:59:21;99662.44;;;-9.42;96.55
65280;BME280;51878;55.748;48.742;2022-11-20T05:01:49;99647.84;;;-9.49;96.71
65280;BME280;51878;55.748;48.742;2022-11-20T05:04:16;99651.09;;;-9.19;97.08
65280;BME280;51878;55.748;48.742;2022-11-20T05:06:43;99602.53;;;-9.54;96.77
65280;BME280;51878;55.748;48.742;2022-11-20T05:09:12;99574.47;;;-9.76;96.17
65280;BME280;51878;55.748;48.742;2022-11-20T05:11:39;99616.91;;;-9.18;96.30
65280;BME280;51878;55.748;48.742;2022-11-20T05:14:06;99642.34;;;-8.96;96.44
65280;BME280;51878;55.748;48.742;2022-11-20T05:16:34;99617.41;;;-9.08;95.84
65280;BME280;51878;55.748;48.742;2022-11-20T05:19:02;99636.91;;;-9.15;96.01
65280;BME280;51878;55.748;48.742;2022-11-20T05:21:31;99597.84;;;-9.46;96.39
65280;BME280;51878;55.748;48.742;2022-11-20T05:23:59;99575.44;;;-9.55;96.74
65280;BME280;51878;55.748;48.742;2022-11-20T05:26:26;99641.84;;;-9.06;96.55
65280;BME280;51878;55.748;48.742;2022-11-20T05:28:53;99628.25;;;-9.17;96.36
65280;BME280;51878;55.748;48.742;2022-11-20T05:31:22;99524.06;;;-9.84;95.67
65280;BME280;51878;55.748;48.742;2022-11-20T05:33:54;99627.56;;;-8.99;96.37
65280;BME280;51878;55.748;48.742;2022-11-20T05:36:22;99637.28;;;-8.79;96.13
65280;BME280;51878;55.748;48.742;2022-11-20T05:38:49;99619.63;;;-8.97;95.79
65280;BME280;51878;55.748;48.742;2022-11-20T05:41:18;99603.41;;;-9.08;96.07
65280;BME280;51878;55.748;48.742;2022-11-20T05:43:51;99568.47;;;-9.10;95.42
65280;BME280;51878;55.748;48.742;2022-11-20T05:46:21;99606.06;;;-8.86;95.36
65280;BME280;51878;55.748;48.742;2022-11-20T05:48:57;99555.50;;;-9.13;95.50
65280;BME280;51878;55.748;48.742;2022-11-20T05:51:26;99566.47;;;-9.26;96.06
65280;BME280;51878;55.748;48.742;2022-11-20T05:53:53;99568.25;;;-9.04;96.37
65280;BME280;51878;55.748;48.742;2022-11-20T05:56:22;99597.31;;;-8.87;96.25
65280;BME280;51878;55.748;48.742;2022-11-20T05:58:49;99554.59;;;-9.12;96.42
65280;BME280;51878;55.748;48.742;2022-11-20T06:01:21;99593.44;;;-8.77;96.95
65280;BME280;51878;55.748;48.742;2022-11-20T06:03:48;99551.59;;;-9.03;96.85
65280;BME280;51878;55.748;48.742;2022-11-20T06:06:18;99610.78;;;-8.73;96.53
65280;BME280;51878;55.748;48.742;2022-11-20T06:08:46;99611.09;;;-8.60;96.46
65280;BME280;51878;55.748;48.742;2022-11-20T06:11:14;99543.47;;;-8.97;96.06
65280;BME280;51878;55.748;48.742;2022-11-20T06:13:42;99586.69;;;-8.62;96.33
65280;BME280;51878;55.748;48.742;2022-11-20T06:16:10;99543.00;;;-8.86;96.28
65280;BME280;51878;55.748;48.742;2022-11-20T06:18:38;99578.50;;;-8.76;96.33
65280;BME280;51878;55.748;48.742;2022-11-20T06:21:07;99599.06;;;-8.43;96.51
65280;BME280;51878;55.748;48.742;2022-11-20T06:23:35;99599.25;;;-8.27;96.37
65280;BME280;51878;55.748;48.742;2022-11-20T06:28:34;99565.09;;;-8.48;96.58
65280;BME280;51878;55.748;48.742;2022-11-20T06:31:02;99543.28;;;-8.70;95.95
65280;BME280;51878;55.748;48.742;2022-11-20T06:33:33;99607.06;;;-8.26;95.91
65280;BME280;51878;55.748;48.742;2022-11-20T06:36:00;99560.63;;;-8.46;95.11
65280;BME280;51878;55.748;48.742;2022-11-20T06:38:32;99597.97;;;-8.60;95.42
65280;BME280;51878;55.748;48.742;2022-11-20T06:40:59;99628.84;;;-8.43;96.73
65280;BME280;51878;55.748;48.742;2022-11-20T06:43:28;99566.16;;;-8.52;96.45
65280;BME280;51878;55.748;48.742;2022-11-20T06:45:57;99630.63;;;-8.02;96.00
65280;BME280;51878;55.748;48.742;2022-11-20T06:48:28;99621.47;;;-8.14;95.01
65280;BME280;51878;55.748;48.742;2022-11-20T06:50:57;99533.00;;;-8.36;95.27
65280;BME280;51878;55.748;48.742;2022-11-20T06:53:27;99634.38;;;-7.87;94.55
65280;BME280;51878;55.748;48.742;2022-11-20T06:55:55;99537.69;;;-8.42;94.69
65280;BME280;51878;55.748;48.742;2022-11-20T06:58:25;99622.28;;;-7.52;94.64
65280;BME280;51878;55.748;48.742;2022-11-20T07:00:53;99583.00;;;-7.76;93.75
65280;BME280;51878;55.748;48.742;2022-11-20T07:03:20;99598.47;;;-7.49;92.43
65280;BME280;51878;55.748;48.742;2022-11-20T07:05:47;99576.53;;;-7.50;92.66
65280;BME280;51878;55.748;48.742;2022-11-20T07:08:15;99552.69;;;-7.84;91.96
65280;BME280;51878;55.748;48.742;2022-11-20T07:10:42;99586.91;;;-7.45;92.76
65280;BME280;51878;55.748;48.742;2022-11-20T07:13:10;99401.31;;;-8.48;91.71
65280;BME280;51878;55.748;48.742;2022-11-20T07:15:38;99609.31;;;-7.36;91.88
65280;BME280;51878;55.748;48.742;2022-11-20T07:18:05;99539.00;;;-7.53;91.61
65280;BME280;51878;55.748;48.742;2022-11-20T07:20:32;99563.81;;;-7.78;91.65
65280;BME280;51878;55.748;48.742;2022-11-20T07:23:01;99538.19;;;-7.93;91.79
65280;BME280;51878;55.748;48.742;2022-11-20T07:25:28;99571.75;;;-7.79;92.13
65280;BME280;51878;55.748;48.742;2022-11-20T07:27:59;99546.06;;;-7.74;92.61
65280;BME280;51878;55.748;48.742;2022-11-20T07:30:28;99490.47;;;-8.04;91.68
65280;BME280;51878;55.748;48.742;2022-11-20T07:32:56;99486.88;;;-8.03;92.26
65280;BME280;51878;55.748;48.742;2022-11-20T07:35:24;99608.53;;;-7.19;91.31
65280;BME280;51878;55.748;48.742;2022-11-20T07:37:51;99582.03;;;-7.35;91.15
65280;BME280;51878;55.748;48.742;2022-11-20T07:40:18;99565.28;;;-7.72;91.61
65280;BME280;51878;55.748;48.742;2022-11-20T07:42:50;99611.84;;;-7.54;93.11
65280;BME280;51878;55.748;48.742;2022-11-20T07:45:19;99571.50;;;-7.35;92.74
65280;BME280;51878;55.748;48.742;2022-11-20T07:47:46;99608.81;;;-7.44;92.54
65280;BME280;51878;55.748;48.742;2022-11-20T07:50:16;99609.31;;;-7.17;92.11
65280;BME280;51878;55.748;48.742;2022-11-20T07:52:43;99554.16;;;-7.39;91.92
65280;BME280;51878;55.748;48.742;2022-11-20T07:55:11;99553.94;;;-7.35;90.86
65280;BME280;51878;55.748;48.742;2022-11-20T07:57:38;99556.22;;;-7.27;90.88
65280;BME280;51878;55.748;48.742;2022-11-20T08:00:07;99598.56;;;-7.13;91.19
65280;BME280;51878;55.748;48.742;2022-11-20T08:02:38;99602.75;;;-7.09;90.33
65280;BME280;51878;55.748;48.742;2022-11-20T08:05:07;99407.28;;;-8.26;90.34
65280;BME280;51878;55.748;48.742;2022-11-20T08:07:38;99604.53;;;-7.09;91.11
65280;BME280;51878;55.748;48.742;2022-11-20T08:10:07;99540.69;;;-7.52;91.01
65280;BME280;51878;55.748;48.742;2022-11-20T08:12:34;99551.00;;;-7.48;90.93
65280;BME280;51878;55.748;48.742;2022-11-20T08:15:20;99604.91;;;-6.98;91.15
65280;BME280;51878;55.748;48.742;2022-11-20T08:17:47;99606.47;;;-7.13;91.09
65280;BME280;51878;55.748;48.742;2022-11-20T08:20:40;99586.44;;;-6.98;91.09
65280;BME280;51878;55.748;48.742;2022-11-20T08:23:07;99596.25;;;-6.82;90.75
65280;BME280;51878;55.748;48.742;2022-11-20T08:25:36;99595.19;;;-6.97;90.32
65280;BME280;51878;55.748;48.742;2022-11-20T08:28:05;99568.38;;;-7.43;91.04
65280;BME280;51878;55.748;48.742;2022-11-20T08:30:49;99568.09;;;-7.18;92.44
65280;BME280;51878;55.748;48.742;2022-11-20T08:33:17;99535.06;;;-7.25;90.96
65280;BME280;51878;55.748;48.742;2022-11-20T08:35:45;99584.31;;;-7.28;92.80
65280;BME280;51878;55.748;48.742;2022-11-20T08:38:12;99515.09;;;-7.49;91.56
65280;BME280;51878;55.748;48.742;2022-11-20T08:40:41;99575.00;;;-7.35;92.98
65280;BME280;51878;55.748;48.742;2022-11-20T08:43:28;99589.03;;;-7.15;93.57
65280;BME280;51878;55.748;48.742;2022-11-20T08:45:56;99568.78;;;-6.96;92.68
65280;BME280;51878;55.748;48.742;2022-11-20T08:48:24;99573.78;;;-7.09;92.85
65280;BME280;51878;55.748;48.742;2022-11-20T08:50:51;99513.81;;;-7.40;93.44
65280;BME280;51878;55.748;48.742;2022-11-20T08:53:18;99579.91;;;-6.89;92.34
65280;BME280;51878;55.748;48.742;2022-11-20T08:55:45;99517.19;;;-7.19;92.11
65280;BME280;51878;55.748;48.742;2022-11-20T08:58:12;99559.31;;;-7.00;92.44
65280;BME280;51878;55.748;48.742;2022-11-20T09:00:39;99558.69;;;-7.24;92.70
65280;BME280;51878;55.748;48.742;2022-11-20T09:03:06;99583.41;;;-7.27;94.40
65280;BME280;51878;55.748;48.742;2022-11-20T09:05:33;99565.22;;;-6.95;94.61
65280;BME280;51878;55.748;48.742;2022-11-20T09:08:00;99579.78;;;-7.05;93.03
65280;BME280;51878;55.748;48.742;2022-11-20T09:10:27;99547.09;;;-7.39;94.46
65280;BME280;51878;55.748;48.742;2022-11-20T09:12:55;99587.91;;;-7.10;93.89
65280;BME280;51878;55.748;48.742;2022-11-20T09:15:25;99594.81;;;-6.71;93.10
65280;BME280;51878;55.748;48.742;2022-11-20T09:17:53;99558.91;;;-6.73;92.16
65280;BME280;51878;55.748;48.742;2022-11-20T09:20:21;99585.69;;;-6.46;91.26
65280;BME280;51878;55.748;48.742;2022-11-20T09:22:51;99588.97;;;-6.41;91.73
65280;BME280;51878;55.748;48.742;2022-11-20T09:25:18;99521.47;;;-6.80;90.85
65280;BME280;51878;55.748;48.742;2022-11-20T09:27:45;99597.66;;;-6.39;90.95
65280;BME280;51878;55.748;48.742;2022-11-20T09:30:13;99611.41;;;-6.69;91.01
65280;BME280;51878;55.748;48.742;2022-11-20T09:32:41;99566.47;;;-6.66;91.35
65280;BME280;51878;55.748;48.742;2022-11-20T09:35:09;99592.78;;;-7.02;92.36
65280;BME280;51878;55.748;48.742;2022-11-20T09:37:37;99601.31;;;-6.97;91.96
65280;BME280;51878;55.748;48.742;2022-11-20T09:40:04;99576.00;;;-7.18;92.43
65280;BME280;51878;55.748;48.742;2022-11-20T09:42:41;99590.81;;;-7.16;92.49
65280;BME280;51878;55.748;48.742;2022-11-20T09:48:18;99606.34;;;-7.10;93.95
65280;BME280;51878;55.748;48.742;2022-11-20T09:53:40;99547.44;;;-7.28;93.30
65280;BME280;51878;55.748;48.742;2022-11-20T09:56:14;99594.91;;;-6.72;92.46
65280;BME280;51878;55.748;48.742;2022-11-20T09:58:54;99559.31;;;-6.81;91.47
65280;BME280;51878;55.748;48.742;2022-11-20T10:01:26;99583.81;;;-6.61;91.12
65280;BME280;51878;55.748;48.742;2022-11-20T10:04:03;99579.28;;;-6.40;90.71
65280;BME280;51878;55.748;48.742;2022-11-20T10:06:41;99559.34;;;-6.63;91.10
65280;BME280;51878;55.748;48.742;2022-11-20T10:12:09;99617.59;;;-6.16;89.80
65280;BME280;51878;55.748;48.742;2022-11-20T10:14:50;99609.63;;;-6.32;89.31
65280;BME280;51878;55.748;48.742;2022-11-20T10:17:48;99625.59;;;-6.17;89.89
65280;BME280;51878;55.748;48.742;2022-11-20T10:21:07;99613.47;;;-6.04;89.71
65280;BME280;51878;55.748;48.742;2022-11-20T10:29:16;99598.00;;;-6.10;89.27
65280;BME280;51878;55.748;48.742;2022-11-20T10:31:50;99530.41;;;-6.48;88.34
65280;BME280;51878;55.748;48.742;2022-11-20T10:34:28;99617.13;;;-6.24;88.44
65280;BME280;51878;55.748;48.742;2022-11-20T10:37:01;99609.97;;;-6.39;89.24
65280;BME280;51878;55.748;48.742;2022-11-20T10:42:01;99570.09;;;-6.51;89.84
65280;BME280;51878;55.748;48.742;2022-11-20T10:44:29;99559.81;;;-6.38;89.09
65280;BME280;51878;55.748;48.742;2022-11-20T10:47:20;99592.94;;;-6.32;89.21
65280;BME280;51878;55.748;48.742;2022-11-20T10:49:52;99581.19;;;-6.44;89.97
65280;BME280;51878;55.748;48.742;2022-11-20T10:59:59;99539.63;;;-6.56;89.06
65280;BME280;51878;55.748;48.742;2022-11-20T11:02:45;99602.63;;;-6.50;90.69
65280;BME280;51878;55.748;48.742;2022-11-20T11:07:50;99602.84;;;-6.20;91.79
65280;BME280;51878;55.748;48.742;2022-11-20T11:12:47;99608.09;;;-5.85;90.61
65280;BME280;51878;55.748;48.742;2022-11-20T11:15:38;99536.38;;;-6.27;90.01
65280;BME280;51878;55.748;48.742;2022-11-20T11:18:09;99558.78;;;-6.18;89.84
65280;BME280;51878;55.748;48.742;2022-11-20T11:20:37;99560.81;;;-6.23;90.18
65280;BME280;51878;55.748;48.742;2022-11-20T11:23:43;99603.47;;;-5.97;90.67
65280;BME280;51878;55.748;48.742;2022-11-20T11:26:20;99586.97;;;-6.18;91.06
65280;BME280;51878;55.748;48.742;2022-11-20T11:29:03;99505.09;;;-6.87;91.11
65280;BME280;51878;55.748;48.742;2022-11-20T11:31:33;99612.97;;;-6.83;92.75
65280;BME280;51878;55.748;48.742;2022-11-20T11:34:14;99597.88;;;-6.80;93.77
65280;BME280;51878;55.748;48.742;2022-11-20T11:36:42;99580.75;;;-6.52;94.58
65280;BME280;51878;55.748;48.742;2022-11-20T11:39:19;99585.69;;;-6.63;93.96
65280;BME280;51878;55.748;48.742;2022-11-20T11:41:48;99528.97;;;-6.90;94.05
65280;BME280;51878;55.748;48.742;2022-11-20T11:44:27;99561.56;;;-6.73;94.68
65280;BME280;51878;55.748;48.742;2022-11-20T11:50:18;99559.69;;;-6.71;93.92
65280;BME280;51878;55.748;48.742;2022-11-20T11:58:29;99589.19;;;-6.82;97.25
65280;BME280;51878;55.748;48.742;2022-11-20T12:04:23;99546.47;;;-6.89;99.04
65280;BME280;51878;55.748;48.742;2022-11-20T12:06:56;99605.91;;;-6.64;98.54
65280;BME280;51878;55.748;48.742;2022-11-20T12:09:32;99607.31;;;-6.74;97.23
65280;BME280;51878;55.748;48.742;2022-11-20T12:12:10;99605.97;;;-6.83;97.26
65280;BME280;51878;55.748;48.742;2022-11-20T12:14:41;99606.75;;;-6.81;98.08
65280;BME280;51878;55.748;48.742;2022-11-20T12:17:13;99619.81;;;-6.60;98.35
65280;BME280;51878;55.748;48.742;2022-11-20T12:19:41;99613.63;;;-6.42;98.56
65280;BME280;51878;55.748;48.742;2022-11-20T12:23:27;99650.16;;;-6.52;97.69
65280;BME280;51878;55.748;48.742;2022-11-20T12:25:30;99580.13;;;-6.94;97.94
65280;BME280;51878;55.748;48.742;2022-11-20T12:28:12;99639.53;;;-6.50;97.94
65280;BME280;51878;55.748;48.742;2022-11-20T12:31:02;99607.53;;;-6.79;98.44
65280;BME280;51878;55.748;48.742;2022-11-20T12:45:11;99636.06;;;-6.89;100.00
65280;BME280;51878;55.748;48.742;2022-11-20T12:56:42;99644.19;;;-6.74;100.00
65280;BME280;51878;55.748;48.742;2022-11-20T12:59:33;99644.09;;;-6.73;100.00
65280;BME280;51878;55.748;48.742;2022-11-20T13:02:24;99644.59;;;-7.21;100.00
65280;BME280;51878;55.748;48.742;2022-11-20T13:07:44;99634.53;;;-7.12;100.00
65280;BME280;51878;55.748;48.742;2022-11-20T13:18:13;99632.94;;;-6.78;100.00
65280;BME280;51878;55.748;48.742;2022-11-20T13:20:44;99577.91;;;-7.03;100.00
65280;BME280;51878;55.748;48.742;2022-11-20T13:23:23;99658.06;;;-6.52;100.00
65280;BME280;51878;55.748;48.742;2022-11-20T13:25:51;99601.03;;;-6.91;100.00
65280;BME280;51878;55.748;48.742;2022-11-20T13:30:51;99626.81;;;-6.78;100.00
65280;BME280;51878;55.748;48.742;2022-11-20T13:33:36;99662.88;;;-6.42;100.00
65280;BME280;51878;55.748;48.742;2022-11-20T13:36:20;99662.00;;;-6.79;100.00
65280;BME280;51878;55.748;48.742;2022-11-20T13:38:49;99658.28;;;-6.56;100.00
65280;BME280;51878;55.748;48.742;2022-11-20T13:41:35;99607.13;;;-7.08;100.00
65280;BME280;51878;55.748;48.742;2022-11-20T13:44:10;99566.03;;;-7.12;100.00
65280;BME280;51878;55.748;48.742;2022-11-20T13:46:42;99623.69;;;-6.87;100.00
65280;BME280;51878;55.748;48.742;2022-11-20T13:49:34;99490.78;;;-7.54;100.00
65280;BME280;51878;55.748;48.742;2022-11-20T13:55:29;99659.34;;;-6.79;100.00
65280;BME280;51878;55.748;48.742;2022-11-20T14:01:13;99648.19;;;-6.84;100.00
65280;BME280;51878;55.748;48.742;2022-11-20T14:03:42;99646.31;;;-7.01;100.00
65280;BME280;51878;55.748;48.742;2022-11-20T14:06:32;99612.16;;;-7.22;100.00
65280;BME280;51878;55.748;48.742;2022-11-20T14:09:00;99623.19;;;-7.14;100.00
65280;BME280;51878;55.748;48.742;2022-11-20T14:11:29;99617.44;;;-7.22;100.00
65280;BME280;51878;55.748;48.742;2022-11-20T14:14:46;99683.94;;;-6.79;100.00
65280;BME280;51878;55.748;48.742;2022-11-20T14:16:48;99654.31;;;-6.84;100.00
65280;BME280;51878;55.748;48.742;2022-11-20T14:21:49;99664.63;;;-6.79;100.00
65280;BME280;51878;55.748;48.742;2022-11-20T14:24:22;99666.47;;;-7.19;100.00
65280;BME280;51878;55.748;48.742;2022-11-20T14:26:51;99562.47;;;-7.49;100.00
65280;BME280;51878;55.748;48.742;2022-11-20T14:29:23;99674.16;;;-7.15;100.00
65280;BME280;51878;55.748;48.742;2022-11-20T14:31:54;99659.84;;;-6.90;100.00